Home   Weather   Germany   Kamen   Past weeks
Flag for Germany

Past Weather in Kamen, North Rhine-Westphalia, Germany — Yesterday and Last 2 Weeks

Currently: 57 °F. Passing clouds. (Weather station: Dortmund / Wickede, Germany). See more current weather

Past Weather in Kamen — Graph

°F

Kamen Temperature Yesterday

Maximum temperature yesterday: 73 °F (at 4:20 pm)
Minimum temperature yesterday: 55 °F (at 11:50 pm)
Average temperature yesterday: 66 °F

High & Low Weather Summary for the Past Weeks

 TemperatureHumidityPressure
High81 °F (Jun 2, 3:20 pm)100% (May 29, 8:50 am)30.36 "Hg (May 29, 8:50 am)
Low41 °F (May 30, 5:20 am)30% (Jun 2, 3:50 pm)29.95 "Hg (Jun 2, 5:50 pm)
Average65 °F70%30.15 "Hg
* Reported May 29 8:20 am — Jun 13 8:50 am, Kamen. Weather by CustomWeather, © 2021

Note: Actual official high and low records may vary slightly from our data, if they occured in-between our weather recording intervals... More about our weather records

Kamen Weather History for the Previous 24 Hours

Scroll right to see more
 ConditionsComfort  
Time TempWeatherWind HumidityBarometerVisibility
8:50 am
Sun, Jun 13
57 °FPassing clouds.5 mph67%30.36 "HgN/A
8:20 am57 °FPassing clouds.3 mph72%30.33 "HgN/A
7:50 am55 °FPassing clouds.3 mph77%30.33 "HgN/A
7:20 am54 °FSunny.2 mph77%30.33 "Hg10 mi
6:50 am54 °FSunny.No wind82%30.33 "Hg10 mi
6:20 am50 °FSunny.No wind88%30.30 "Hg10 mi
5:50 am48 °FSunny.No wind87%30.30 "Hg10 mi
5:20 am50 °FSunny.2 mph88%30.30 "Hg10 mi
4:50 am50 °FClear.No wind88%30.30 "HgN/A
4:20 am50 °FClear.No wind88%30.30 "HgN/A
3:50 am50 °FClear.2 mph88%30.30 "HgN/A
3:20 am52 °FClear.3 mph82%30.30 "HgN/A
2:50 am50 °FClear.2 mph88%30.30 "HgN/A
2:20 am50 °FClear.2 mph88%30.27 "HgN/A
1:50 am52 °FClear.2 mph82%30.27 "HgN/A
1:20 am52 °FClear.2 mph82%30.27 "HgN/A
12:50 am52 °FClear.2 mph82%30.27 "HgN/A
12:20 am54 °FClear.2 mph77%30.27 "HgN/A
11:50 pm
Sat, Jun 12
55 °FClear.2 mph72%30.27 "HgN/A
11:20 pm57 °FClear.2 mph67%30.24 "HgN/A
10:50 pm57 °FClear.3 mph67%30.24 "HgN/A
10:20 pm59 °FPassing clouds.7 mph63%30.24 "HgN/A
9:50 pm61 °FPassing clouds.7 mph63%30.21 "HgN/A
9:20 pm63 °FPassing clouds.7 mph59%30.21 "HgN/A
8:50 pm64 °FPassing clouds.8 mph56%30.18 "HgN/A
8:20 pm66 °FPassing clouds.8 mph52%30.18 "HgN/A
7:50 pm66 °FPassing clouds.8 mph52%30.18 "HgN/A
7:20 pm68 °FPassing clouds.7 mph49%30.15 "HgN/A
6:50 pm70 °FPassing clouds.8 mph46%30.15 "HgN/A
6:20 pm70 °FPassing clouds.9 mph46%30.15 "HgN/A
5:50 pm70 °FSunny.8 mph50%30.15 "Hg10 mi
5:20 pm70 °FScattered clouds.8 mph50%30.12 "HgN/A
4:50 pm72 °FPassing clouds.8 mph44%30.12 "HgN/A
4:20 pm73 °FPassing clouds.8 mph47%30.12 "HgN/A
3:50 pm70 °FScattered clouds.9 mph57%30.12 "HgN/A
3:20 pm72 °FPassing clouds.8 mph53%30.12 "HgN/A
2:50 pm72 °FPassing clouds.9 mph53%30.09 "HgN/A
2:20 pm72 °FScattered clouds.8 mph53%30.09 "HgN/A
1:50 pm70 °FPassing clouds.12 mph57%30.09 "HgN/A
1:20 pm70 °FScattered showers. Passing clouds.13 mph60%30.09 "HgN/A
12:50 pm70 °FBroken clouds.12 mph64%30.09 "HgN/A
12:20 pm68 °FPartly sunny.9 mph69%30.09 "HgN/A
11:50 am66 °FBroken clouds.9 mph73%30.09 "HgN/A
11:20 am66 °FPartly sunny.8 mph78%30.09 "HgN/A
10:50 am64 °FBroken clouds.8 mph83%30.09 "HgN/A
10:20 am66 °FBroken clouds.10 mph78%30.07 "HgN/A
Weather by CustomWeather, © 2021

See weather overview